Terminal Aerodrome Forecast
Issued by NWS Jackson, MS

Current Version | Previous Version | Text Only | Print | Product List | Glossary On
Versions: 1 2 3 4 5 6 7 8 9 10 11 12 13 14 15
000
FTUS44 KJAN 201534 AAA
TAFHBG
TAF AMD
KHBG 201534Z 2016/2112 23004KT P6SM OVC006
     FM201700 21009KT P6SM BKN015
     FM201800 21010KT P6SM FEW025 SCT250
     FM210500 17008KT P6SM VCTS BKN015CB OVC100=

USA.gov is the U.S. government's official web portal to all federal, state and local government web resources and services.